sensor_id;sensor_type;location;lat;lon;timestamp;P1;durP1;ratioP1;P2;durP2;ratioP2
28323;SDS011;15583;54.078;12.106;2023-02-01T00:02:13;8.48;;;1.80;;
28323;SDS011;15583;54.078;12.106;2023-02-01T00:04:39;6.63;;;1.75;;
28323;SDS011;15583;54.078;12.106;2023-02-01T00:07:05;9.32;;;1.73;;
28323;SDS011;15583;54.078;12.106;2023-02-01T00:09:31;12.52;;;2.28;;
28323;SDS011;15583;54.078;12.106;2023-02-01T00:11:57;6.80;;;1.80;;
28323;SDS011;15583;54.078;12.106;2023-02-01T00:14:26;18.33;;;3.20;;
28323;SDS011;15583;54.078;12.106;2023-02-01T00:16:52;8.57;;;2.10;;
28323;SDS011;15583;54.078;12.106;2023-02-01T00:19:18;12.02;;;2.28;;
28323;SDS011;15583;54.078;12.106;2023-02-01T00:21:44;6.53;;;1.90;;
28323;SDS011;15583;54.078;12.106;2023-02-01T00:24:11;12.00;;;2.63;;
28323;SDS011;15583;54.078;12.106;2023-02-01T00:26:38;11.60;;;2.05;;
28323;SDS011;15583;54.078;12.106;2023-02-01T00:29:05;11.20;;;2.35;;
28323;SDS011;15583;54.078;12.106;2023-02-01T00:31:32;10.13;;;2.35;;
28323;SDS011;15583;54.078;12.106;2023-02-01T00:33:58;13.32;;;2.70;;
28323;SDS011;15583;54.078;12.106;2023-02-01T00:36:24;7.50;;;1.65;;
28323;SDS011;15583;54.078;12.106;2023-02-01T00:38:50;12.50;;;2.65;;
28323;SDS011;15583;54.078;12.106;2023-02-01T00:41:17;9.40;;;2.50;;
28323;SDS011;15583;54.078;12.106;2023-02-01T00:43:43;12.80;;;2.78;;
28323;SDS011;15583;54.078;12.106;2023-02-01T00:46:10;13.95;;;2.00;;
28323;SDS011;15583;54.078;12.106;2023-02-01T00:48:36;14.85;;;2.28;;
28323;SDS011;15583;54.078;12.106;2023-02-01T00:51:04;12.50;;;2.80;;
28323;SDS011;15583;54.078;12.106;2023-02-01T00:53:30;16.00;;;2.47;;
28323;SDS011;15583;54.078;12.106;2023-02-01T00:55:56;8.75;;;2.35;;
28323;SDS011;15583;54.078;12.106;2023-02-01T00:58:22;15.77;;;3.00;;
28323;SDS011;15583;54.078;12.106;2023-02-01T01:01:04;12.93;;;1.83;;
28323;SDS011;15583;54.078;12.106;2023-02-01T01:03:31;12.00;;;2.40;;
28323;SDS011;15583;54.078;12.106;2023-02-01T01:05:58;9.52;;;1.75;;
28323;SDS011;15583;54.078;12.106;2023-02-01T01:08:25;11.95;;;1.95;;
28323;SDS011;15583;54.078;12.106;2023-02-01T01:10:51;8.13;;;1.77;;
28323;SDS011;15583;54.078;12.106;2023-02-01T01:13:16;9.25;;;1.98;;
28323;SDS011;15583;54.078;12.106;2023-02-01T01:15:42;7.78;;;1.73;;
28323;SDS011;15583;54.078;12.106;2023-02-01T01:18:08;8.10;;;1.77;;
28323;SDS011;15583;54.078;12.106;2023-02-01T01:20:35;11.45;;;2.20;;
28323;SDS011;15583;54.078;12.106;2023-02-01T01:23:02;5.35;;;1.30;;
28323;SDS011;15583;54.078;12.106;2023-02-01T01:25:28;14.02;;;2.88;;
28323;SDS011;15583;54.078;12.106;2023-02-01T01:27:54;9.75;;;1.65;;
28323;SDS011;15583;54.078;12.106;2023-02-01T01:30:20;9.23;;;2.17;;
28323;SDS011;15583;54.078;12.106;2023-02-01T01:32:46;8.25;;;1.40;;
28323;SDS011;15583;54.078;12.106;2023-02-01T01:35:12;11.95;;;2.17;;
28323;SDS011;15583;54.078;12.106;2023-02-01T01:37:38;13.50;;;2.20;;
28323;SDS011;15583;54.078;12.106;2023-02-01T01:40:04;8.65;;;1.90;;
28323;SDS011;15583;54.078;12.106;2023-02-01T01:42:30;10.73;;;2.13;;
28323;SDS011;15583;54.078;12.106;2023-02-01T01:47:33;6.53;;;1.70;;
28323;SDS011;15583;54.078;12.106;2023-02-01T01:50:00;11.63;;;2.13;;
28323;SDS011;15583;54.078;12.106;2023-02-01T01:52:26;8.93;;;2.30;;
28323;SDS011;15583;54.078;12.106;2023-02-01T01:54:52;10.80;;;2.00;;
28323;SDS011;15583;54.078;12.106;2023-02-01T01:59:53;12.98;;;2.40;;
28323;SDS011;15583;54.078;12.106;2023-02-01T02:02:21;11.27;;;2.25;;
28323;SDS011;15583;54.078;12.106;2023-02-01T02:04:46;10.57;;;1.88;;
28323;SDS011;15583;54.078;12.106;2023-02-01T02:07:14;9.85;;;1.88;;
28323;SDS011;15583;54.078;12.106;2023-02-01T02:09:41;11.70;;;2.63;;
28323;SDS011;15583;54.078;12.106;2023-02-01T02:12:08;11.48;;;2.50;;
28323;SDS011;15583;54.078;12.106;2023-02-01T02:14:34;11.43;;;2.47;;
28323;SDS011;15583;54.078;12.106;2023-02-01T02:25:36;13.07;;;2.05;;
28323;SDS011;15583;54.078;12.106;2023-02-01T02:27:46;5.68;;;1.40;;
28323;SDS011;15583;54.078;12.106;2023-02-01T02:41:10;4.82;;;1.08;;
28323;SDS011;15583;54.078;12.106;2023-02-01T02:43:43;9.68;;;1.40;;
28323;SDS011;15583;54.078;12.106;2023-02-01T02:46:36;7.45;;;1.23;;
28323;SDS011;15583;54.078;12.106;2023-02-01T02:49:29;5.30;;;1.05;;
28323;SDS011;15583;54.078;12.106;2023-02-01T02:52:02;2.50;;;0.88;;
28323;SDS011;15583;54.078;12.106;2023-02-01T02:54:47;7.10;;;1.15;;
28323;SDS011;15583;54.078;12.106;2023-02-01T02:57:20;3.95;;;1.00;;
28323;SDS011;15583;54.078;12.106;2023-02-01T03:00:11;9.30;;;1.00;;
28323;SDS011;15583;54.078;12.106;2023-02-01T03:02:56;2.13;;;0.47;;
28323;SDS011;15583;54.078;12.106;2023-02-01T03:05:42;2.53;;;0.50;;
28323;SDS011;15583;54.078;12.106;2023-02-01T03:08:13;4.25;;;0.28;;
28323;SDS011;15583;54.078;12.106;2023-02-01T03:18:36;6.63;;;1.25;;
28323;SDS011;15583;54.078;12.106;2023-02-01T03:21:04;9.55;;;1.85;;
28323;SDS011;15583;54.078;12.106;2023-02-01T03:23:32;6.78;;;1.88;;
28323;SDS011;15583;54.078;12.106;2023-02-01T03:25:59;9.38;;;1.65;;
28323;SDS011;15583;54.078;12.106;2023-02-01T03:28:27;10.35;;;1.90;;
28323;SDS011;15583;54.078;12.106;2023-02-01T03:30:55;12.35;;;1.98;;
28323;SDS011;15583;54.078;12.106;2023-02-01T03:33:21;12.88;;;2.30;;
28323;SDS011;15583;54.078;12.106;2023-02-01T03:38:35;15.23;;;2.80;;
28323;SDS011;15583;54.078;12.106;2023-02-01T03:41:08;10.75;;;2.45;;
28323;SDS011;15583;54.078;12.106;2023-02-01T03:43:37;15.27;;;2.42;;
28323;SDS011;15583;54.078;12.106;2023-02-01T03:46:08;15.65;;;3.08;;
28323;SDS011;15583;54.078;12.106;2023-02-01T03:48:34;13.77;;;2.30;;
28323;SDS011;15583;54.078;12.106;2023-02-01T03:51:01;8.52;;;3.05;;
28323;SDS011;15583;54.078;12.106;2023-02-01T03:53:29;10.45;;;2.47;;
28323;SDS011;15583;54.078;12.106;2023-02-01T03:55:55;14.45;;;3.13;;
28323;SDS011;15583;54.078;12.106;2023-02-01T03:58:22;16.63;;;3.17;;
28323;SDS011;15583;54.078;12.106;2023-02-01T04:00:53;19.00;;;3.33;;
28323;SDS011;15583;54.078;12.106;2023-02-01T04:03:19;17.85;;;3.25;;
28323;SDS011;15583;54.078;12.106;2023-02-01T04:05:47;13.40;;;3.40;;
28323;SDS011;15583;54.078;12.106;2023-02-01T04:08:13;15.43;;;2.83;;
28323;SDS011;15583;54.078;12.106;2023-02-01T04:10:38;20.05;;;3.67;;
28323;SDS011;15583;54.078;12.106;2023-02-01T04:13:05;22.08;;;3.15;;
28323;SDS011;15583;54.078;12.106;2023-02-01T04:15:31;14.30;;;2.75;;
28323;SDS011;15583;54.078;12.106;2023-02-01T04:17:58;17.38;;;3.40;;
28323;SDS011;15583;54.078;12.106;2023-02-01T04:20:24;16.13;;;3.28;;
28323;SDS011;15583;54.078;12.106;2023-02-01T04:22:50;16.00;;;3.63;;
28323;SDS011;15583;54.078;12.106;2023-02-01T04:25:16;20.73;;;4.03;;
28323;SDS011;15583;54.078;12.106;2023-02-01T04:27:42;24.00;;;3.00;;
28323;SDS011;15583;54.078;12.106;2023-02-01T04:30:08;17.33;;;3.58;;
28323;SDS011;15583;54.078;12.106;2023-02-01T04:32:35;19.30;;;3.88;;
28323;SDS011;15583;54.078;12.106;2023-02-01T04:35:01;18.60;;;3.22;;
28323;SDS011;15583;54.078;12.106;2023-02-01T04:37:27;15.50;;;2.55;;
28323;SDS011;15583;54.078;12.106;2023-02-01T04:39:53;21.15;;;3.30;;
28323;SDS011;15583;54.078;12.106;2023-02-01T04:42:20;16.45;;;3.35;;
28323;SDS011;15583;54.078;12.106;2023-02-01T04:44:46;17.55;;;3.50;;
28323;SDS011;15583;54.078;12.106;2023-02-01T04:47:12;20.88;;;3.67;;
28323;SDS011;15583;54.078;12.106;2023-02-01T04:49:39;19.88;;;3.40;;
28323;SDS011;15583;54.078;12.106;2023-02-01T04:52:05;16.92;;;3.40;;
28323;SDS011;15583;54.078;12.106;2023-02-01T04:54:31;14.98;;;3.05;;
28323;SDS011;15583;54.078;12.106;2023-02-01T04:56:57;15.65;;;2.90;;
28323;SDS011;15583;54.078;12.106;2023-02-01T04:59:23;17.33;;;3.63;;
28323;SDS011;15583;54.078;12.106;2023-02-01T05:01:49;16.15;;;2.88;;
28323;SDS011;15583;54.078;12.106;2023-02-01T05:04:15;18.48;;;3.78;;
28323;SDS011;15583;54.078;12.106;2023-02-01T05:06:45;21.40;;;3.63;;
28323;SDS011;15583;54.078;12.106;2023-02-01T05:09:11;15.60;;;3.53;;
28323;SDS011;15583;54.078;12.106;2023-02-01T05:11:37;21.15;;;3.30;;
28323;SDS011;15583;54.078;12.106;2023-02-01T05:14:22;16.73;;;4.22;;
28323;SDS011;15583;54.078;12.106;2023-02-01T05:16:48;12.48;;;3.28;;
28323;SDS011;15583;54.078;12.106;2023-02-01T05:19:14;18.60;;;4.15;;
28323;SDS011;15583;54.078;12.106;2023-02-01T05:21:40;17.17;;;3.35;;
28323;SDS011;15583;54.078;12.106;2023-02-01T05:24:07;16.48;;;3.05;;
28323;SDS011;15583;54.078;12.106;2023-02-01T05:26:44;12.75;;;3.25;;
28323;SDS011;15583;54.078;12.106;2023-02-01T05:29:11;18.13;;;3.28;;
28323;SDS011;15583;54.078;12.106;2023-02-01T05:31:37;13.48;;;3.17;;
28323;SDS011;15583;54.078;12.106;2023-02-01T05:34:03;18.15;;;3.40;;
28323;SDS011;15583;54.078;12.106;2023-02-01T05:36:29;17.15;;;3.38;;
28323;SDS011;15583;54.078;12.106;2023-02-01T05:38:56;17.90;;;3.03;;
28323;SDS011;15583;54.078;12.106;2023-02-01T05:41:22;15.25;;;3.28;;
28323;SDS011;15583;54.078;12.106;2023-02-01T05:43:48;13.77;;;2.90;;
28323;SDS011;15583;54.078;12.106;2023-02-01T05:46:14;9.68;;;3.08;;
28323;SDS011;15583;54.078;12.106;2023-02-01T05:48:40;17.73;;;3.28;;
28323;SDS011;15583;54.078;12.106;2023-02-01T05:51:06;13.20;;;3.20;;
28323;SDS011;15583;54.078;12.106;2023-02-01T05:53:32;18.95;;;3.90;;
28323;SDS011;15583;54.078;12.106;2023-02-01T05:55:58;10.68;;;2.63;;
28323;SDS011;15583;54.078;12.106;2023-02-01T05:58:24;12.63;;;2.22;;
28323;SDS011;15583;54.078;12.106;2023-02-01T06:00:50;8.45;;;2.15;;
28323;SDS011;15583;54.078;12.106;2023-02-01T06:03:16;12.80;;;2.17;;
28323;SDS011;15583;54.078;12.106;2023-02-01T06:05:45;12.13;;;1.95;;
28323;SDS011;15583;54.078;12.106;2023-02-01T06:08:11;8.90;;;1.95;;
28323;SDS011;15583;54.078;12.106;2023-02-01T06:10:37;8.10;;;1.92;;
28323;SDS011;15583;54.078;12.106;2023-02-01T06:13:03;12.60;;;2.72;;
28323;SDS011;15583;54.078;12.106;2023-02-01T06:15:29;5.25;;;1.75;;
28323;SDS011;15583;54.078;12.106;2023-02-01T06:17:56;8.57;;;1.95;;
28323;SDS011;15583;54.078;12.106;2023-02-01T06:20:22;11.18;;;1.70;;
28323;SDS011;15583;54.078;12.106;2023-02-01T06:22:48;4.47;;;1.40;;
28323;SDS011;15583;54.078;12.106;2023-02-01T06:25:14;10.25;;;1.70;;
28323;SDS011;15583;54.078;12.106;2023-02-01T06:27:41;11.68;;;2.03;;
28323;SDS011;15583;54.078;12.106;2023-02-01T06:30:09;11.60;;;2.13;;
28323;SDS011;15583;54.078;12.106;2023-02-01T06:32:38;6.47;;;1.80;;
28323;SDS011;15583;54.078;12.106;2023-02-01T06:35:05;8.32;;;1.80;;
28323;SDS011;15583;54.078;12.106;2023-02-01T06:37:32;5.90;;;1.20;;
28323;SDS011;15583;54.078;12.106;2023-02-01T06:39:59;5.72;;;1.45;;
28323;SDS011;15583;54.078;12.106;2023-02-01T06:42:25;4.03;;;1.20;;
28323;SDS011;15583;54.078;12.106;2023-02-01T06:44:51;8.00;;;1.70;;
28323;SDS011;15583;54.078;12.106;2023-02-01T06:47:16;3.95;;;1.25;;
28323;SDS011;15583;54.078;12.106;2023-02-01T06:49:42;3.15;;;1.17;;
28323;SDS011;15583;54.078;12.106;2023-02-01T06:52:08;5.25;;;1.38;;
28323;SDS011;15583;54.078;12.106;2023-02-01T06:54:34;6.50;;;1.27;;
28323;SDS011;15583;54.078;12.106;2023-02-01T06:57:02;6.13;;;1.10;;
28323;SDS011;15583;54.078;12.106;2023-02-01T06:59:28;6.00;;;0.98;;
28323;SDS011;15583;54.078;12.106;2023-02-01T07:01:54;5.32;;;1.13;;
28323;SDS011;15583;54.078;12.106;2023-02-01T07:04:20;4.07;;;1.38;;
28323;SDS011;15583;54.078;12.106;2023-02-01T07:06:46;3.20;;;0.73;;
28323;SDS011;15583;54.078;12.106;2023-02-01T07:09:12;6.15;;;1.02;;
28323;SDS011;15583;54.078;12.106;2023-02-01T07:11:38;2.53;;;0.80;;
28323;SDS011;15583;54.078;12.106;2023-02-01T07:14:08;4.70;;;0.88;;
28323;SDS011;15583;54.078;12.106;2023-02-01T07:16:34;2.05;;;0.77;;
28323;SDS011;15583;54.078;12.106;2023-02-01T07:19:00;3.28;;;0.90;;
28323;SDS011;15583;54.078;12.106;2023-02-01T07:21:26;2.05;;;0.70;;
28323;SDS011;15583;54.078;12.106;2023-02-01T07:23:53;2.25;;;0.70;;
28323;SDS011;15583;54.078;12.106;2023-02-01T07:26:19;4.60;;;1.10;;
28323;SDS011;15583;54.078;12.106;2023-02-01T07:28:45;3.25;;;1.10;;
28323;SDS011;15583;54.078;12.106;2023-02-01T07:31:12;2.95;;;1.02;;
28323;SDS011;15583;54.078;12.106;2023-02-01T07:33:40;2.55;;;1.00;;
28323;SDS011;15583;54.078;12.106;2023-02-01T07:36:06;5.75;;;1.20;;
28323;SDS011;15583;54.078;12.106;2023-02-01T07:38:33;4.40;;;0.98;;
28323;SDS011;15583;54.078;12.106;2023-02-01T07:40:59;4.53;;;0.90;;
28323;SDS011;15583;54.078;12.106;2023-02-01T07:43:26;5.80;;;0.85;;
28323;SDS011;15583;54.078;12.106;2023-02-01T07:45:52;5.43;;;1.15;;
28323;SDS011;15583;54.078;12.106;2023-02-01T07:48:19;8.18;;;1.50;;
28323;SDS011;15583;54.078;12.106;2023-02-01T07:50:45;5.32;;;1.15;;
28323;SDS011;15583;54.078;12.106;2023-02-01T07:53:11;6.82;;;1.20;;
28323;SDS011;15583;54.078;12.106;2023-02-01T07:55:37;11.60;;;1.45;;
28323;SDS011;15583;54.078;12.106;2023-02-01T07:58:03;4.10;;;1.27;;
28323;SDS011;15583;54.078;12.106;2023-02-01T08:00:30;9.30;;;1.38;;
28323;SDS011;15583;54.078;12.106;2023-02-01T08:03:15;2.60;;;1.00;;
28323;SDS011;15583;54.078;12.106;2023-02-01T08:05:41;6.88;;;1.10;;
28323;SDS011;15583;54.078;12.106;2023-02-01T08:08:07;6.43;;;1.40;;
28323;SDS011;15583;54.078;12.106;2023-02-01T08:10:34;6.35;;;1.10;;
28323;SDS011;15583;54.078;12.106;2023-02-01T08:13:00;6.72;;;1.35;;
28323;SDS011;15583;54.078;12.106;2023-02-01T08:15:26;2.97;;;1.00;;
28323;SDS011;15583;54.078;12.106;2023-02-01T08:17:53;7.35;;;1.33;;
28323;SDS011;15583;54.078;12.106;2023-02-01T08:20:23;9.93;;;1.92;;
28323;SDS011;15583;54.078;12.106;2023-02-01T08:22:50;4.10;;;1.20;;
28323;SDS011;15583;54.078;12.106;2023-02-01T08:25:16;2.85;;;1.20;;
28323;SDS011;15583;54.078;12.106;2023-02-01T08:27:42;9.38;;;1.52;;
28323;SDS011;15583;54.078;12.106;2023-02-01T08:30:09;3.58;;;0.85;;
28323;SDS011;15583;54.078;12.106;2023-02-01T08:32:35;8.30;;;1.55;;
28323;SDS011;15583;54.078;12.106;2023-02-01T08:35:01;5.43;;;1.40;;
28323;SDS011;15583;54.078;12.106;2023-02-01T08:37:27;6.88;;;1.17;;
28323;SDS011;15583;54.078;12.106;2023-02-01T08:39:53;8.88;;;1.50;;
28323;SDS011;15583;54.078;12.106;2023-02-01T08:42:19;6.60;;;1.45;;
28323;SDS011;15583;54.078;12.106;2023-02-01T08:45:04;6.22;;;1.13;;
28323;SDS011;15583;54.078;12.106;2023-02-01T08:47:30;5.97;;;1.50;;
28323;SDS011;15583;54.078;12.106;2023-02-01T08:49:56;8.10;;;1.65;;
28323;SDS011;15583;54.078;12.106;2023-02-01T08:52:22;9.48;;;1.48;;
28323;SDS011;15583;54.078;12.106;2023-02-01T08:54:48;7.60;;;1.42;;
28323;SDS011;15583;54.078;12.106;2023-02-01T08:57:14;10.32;;;2.05;;
28323;SDS011;15583;54.078;12.106;2023-02-01T08:59:41;8.45;;;1.85;;
28323;SDS011;15583;54.078;12.106;2023-02-01T09:02:11;10.93;;;2.33;;
28323;SDS011;15583;54.078;12.106;2023-02-01T09:04:39;6.72;;;1.77;;
28323;SDS011;15583;54.078;12.106;2023-02-01T09:07:05;14.20;;;2.25;;
28323;SDS011;15583;54.078;12.106;2023-02-01T09:09:31;8.68;;;2.17;;
28323;SDS011;15583;54.078;12.106;2023-02-01T09:11:57;7.60;;;1.90;;
28323;SDS011;15583;54.078;12.106;2023-02-01T09:14:23;10.52;;;2.17;;
28323;SDS011;15583;54.078;12.106;2023-02-01T09:16:49;13.90;;;2.22;;
28323;SDS011;15583;54.078;12.106;2023-02-01T09:19:16;6.05;;;2.10;;
28323;SDS011;15583;54.078;12.106;2023-02-01T09:21:42;13.55;;;2.10;;
28323;SDS011;15583;54.078;12.106;2023-02-01T09:24:11;14.63;;;2.40;;
28323;SDS011;15583;54.078;12.106;2023-02-01T09:26:37;7.10;;;2.15;;
28323;SDS011;15583;54.078;12.106;2023-02-01T09:29:03;10.15;;;2.45;;
28323;SDS011;15583;54.078;12.106;2023-02-01T09:31:34;11.55;;;2.10;;
28323;SDS011;15583;54.078;12.106;2023-02-01T09:34:00;9.40;;;2.00;;
28323;SDS011;15583;54.078;12.106;2023-02-01T09:36:27;11.90;;;2.53;;
28323;SDS011;15583;54.078;12.106;2023-02-01T09:38:53;12.88;;;2.42;;
28323;SDS011;15583;54.078;12.106;2023-02-01T09:46:32;16.33;;;2.90;;
28323;SDS011;15583;54.078;12.106;2023-02-01T09:49:22;15.70;;;2.47;;
28323;SDS011;15583;54.078;12.106;2023-02-01T09:51:47;10.93;;;1.90;;
28323;SDS011;15583;54.078;12.106;2023-02-01T09:54:15;5.60;;;0.90;;
28323;SDS011;15583;54.078;12.106;2023-02-01T09:59:17;3.83;;;0.50;;
28323;SDS011;15583;54.078;12.106;2023-02-01T10:01:47;2.53;;;0.60;;
28323;SDS011;15583;54.078;12.106;2023-02-01T10:04:13;3.33;;;0.60;;
28323;SDS011;15583;54.078;12.106;2023-02-01T10:09:36;2.38;;;0.60;;
28323;SDS011;15583;54.078;12.106;2023-02-01T10:14:57;2.83;;;0.82;;
28323;SDS011;15583;54.078;12.106;2023-02-01T10:22:47;6.15;;;1.50;;
28323;SDS011;15583;54.078;12.106;2023-02-01T10:27:40;6.25;;;1.42;;
28323;SDS011;15583;54.078;12.106;2023-02-01T10:30:14;4.72;;;1.23;;
28323;SDS011;15583;54.078;12.106;2023-02-01T10:32:41;11.80;;;2.03;;
28323;SDS011;15583;54.078;12.106;2023-02-01T10:38:25;13.90;;;2.00;;
28323;SDS011;15583;54.078;12.106;2023-02-01T10:40:53;12.13;;;2.30;;
28323;SDS011;15583;54.078;12.106;2023-02-01T10:43:20;8.70;;;2.30;;
28323;SDS011;15583;54.078;12.106;2023-02-01T10:45:46;9.25;;;2.50;;
28323;SDS011;15583;54.078;12.106;2023-02-01T10:48:12;13.27;;;2.15;;
28323;SDS011;15583;54.078;12.106;2023-02-01T10:50:41;14.52;;;2.47;;
28323;SDS011;15583;54.078;12.106;2023-02-01T10:55:52;7.07;;;1.60;;
28323;SDS011;15583;54.078;12.106;2023-02-01T10:58:25;10.23;;;1.40;;
28323;SDS011;15583;54.078;12.106;2023-02-01T11:06:36;10.27;;;1.95;;
28323;SDS011;15583;54.078;12.106;2023-02-01T11:14:18;9.10;;;2.10;;
28323;SDS011;15583;54.078;12.106;2023-02-01T11:16:48;10.23;;;1.98;;
28323;SDS011;15583;54.078;12.106;2023-02-01T11:19:15;10.73;;;2.35;;
28323;SDS011;15583;54.078;12.106;2023-02-01T11:21:42;11.90;;;2.22;;
28323;SDS011;15583;54.078;12.106;2023-02-01T11:26:46;10.98;;;1.85;;
28323;SDS011;15583;54.078;12.106;2023-02-01T11:29:13;9.52;;;2.05;;
28323;SDS011;15583;54.078;12.106;2023-02-01T11:31:42;14.00;;;2.47;;
28323;SDS011;15583;54.078;12.106;2023-02-01T11:34:12;9.70;;;2.17;;
28323;SDS011;15583;54.078;12.106;2023-02-01T11:36:39;10.38;;;2.55;;
28323;SDS011;15583;54.078;12.106;2023-02-01T11:44:26;11.25;;;3.25;;
28323;SDS011;15583;54.078;12.106;2023-02-01T11:46:54;11.52;;;2.33;;
28323;SDS011;15583;54.078;12.106;2023-02-01T11:49:24;9.57;;;1.98;;
28323;SDS011;15583;54.078;12.106;2023-02-01T12:05:05;10.57;;;2.22;;
28323;SDS011;15583;54.078;12.106;2023-02-01T12:13:12;9.43;;;2.10;;
28323;SDS011;15583;54.078;12.106;2023-02-01T12:15:49;6.50;;;1.30;;
28323;SDS011;15583;54.078;12.106;2023-02-01T12:23:56;4.63;;;1.38;;
28323;SDS011;15583;54.078;12.106;2023-02-01T12:34:35;5.43;;;1.42;;
28323;SDS011;15583;54.078;12.106;2023-02-01T12:37:20;12.68;;;1.55;;
28323;SDS011;15583;54.078;12.106;2023-02-01T12:42:37;9.00;;;2.05;;
28323;SDS011;15583;54.078;12.106;2023-02-01T12:47:48;11.40;;;1.80;;
28323;SDS011;15583;54.078;12.106;2023-02-01T12:52:46;10.63;;;1.83;;
28323;SDS011;15583;54.078;12.106;2023-02-01T12:57:40;12.23;;;2.50;;
28323;SDS011;15583;54.078;12.106;2023-02-01T13:00:30;11.75;;;2.20;;
28323;SDS011;15583;54.078;12.106;2023-02-01T13:03:02;11.82;;;2.53;;
28323;SDS011;15583;54.078;12.106;2023-02-01T13:05:48;8.93;;;2.47;;
28323;SDS011;15583;54.078;12.106;2023-02-01T13:08:16;5.53;;;1.60;;
28323;SDS011;15583;54.078;12.106;2023-02-01T13:10:45;8.05;;;1.90;;
28323;SDS011;15583;54.078;12.106;2023-02-01T13:15:49;10.25;;;1.73;;
28323;SDS011;15583;54.078;12.106;2023-02-01T13:18:18;7.47;;;1.88;;
28323;SDS011;15583;54.078;12.106;2023-02-01T13:20:47;9.30;;;2.08;;
28323;SDS011;15583;54.078;12.106;2023-02-01T13:23:22;8.73;;;1.95;;
28323;SDS011;15583;54.078;12.106;2023-02-01T13:25:50;11.43;;;2.30;;
28323;SDS011;15583;54.078;12.106;2023-02-01T13:28:18;6.40;;;1.60;;
28323;SDS011;15583;54.078;12.106;2023-02-01T13:33:34;1.65;;;0.50;;
28323;SDS011;15583;54.078;12.106;2023-02-01T13:36:15;1.20;;;0.30;;
28323;SDS011;15583;54.078;12.106;2023-02-01T13:41:35;0.68;;;0.28;;
28323;SDS011;15583;54.078;12.106;2023-02-01T13:44:09;0.60;;;0.20;;
28323;SDS011;15583;54.078;12.106;2023-02-01T13:46:40;1.10;;;0.22;;
28323;SDS011;15583;54.078;12.106;2023-02-01T13:49:12;0.60;;;0.25;;
28323;SDS011;15583;54.078;12.106;2023-02-01T13:51:41;0.32;;;0.10;;
28323;SDS011;15583;54.078;12.106;2023-02-01T13:54:21;0.25;;;0.17;;
28323;SDS011;15583;54.078;12.106;2023-02-01T13:56:49;0.10;;;0.10;;
28323;SDS011;15583;54.078;12.106;2023-02-01T14:04:57;1.70;;;0.35;;
28323;SDS011;15583;54.078;12.106;2023-02-01T14:07:25;2.50;;;0.70;;
28323;SDS011;15583;54.078;12.106;2023-02-01T14:09:51;2.53;;;0.60;;
28323;SDS011;15583;54.078;12.106;2023-02-01T14:17:46;1.90;;;0.70;;
28323;SDS011;15583;54.078;12.106;2023-02-01T14:23:02;4.30;;;0.63;;
28323;SDS011;15583;54.078;12.106;2023-02-01T14:25:32;5.68;;;0.93;;
28323;SDS011;15583;54.078;12.106;2023-02-01T14:27:58;2.78;;;0.90;;
28323;SDS011;15583;54.078;12.106;2023-02-01T14:30:26;2.70;;;0.95;;
28323;SDS011;15583;54.078;12.106;2023-02-01T14:32:52;8.98;;;1.38;;
28323;SDS011;15583;54.078;12.106;2023-02-01T14:35:19;7.32;;;1.00;;
28323;SDS011;15583;54.078;12.106;2023-02-01T14:37:46;3.55;;;0.93;;
28323;SDS011;15583;54.078;12.106;2023-02-01T14:55:34;4.53;;;0.70;;
28323;SDS011;15583;54.078;12.106;2023-02-01T14:58:02;3.70;;;0.70;;
28323;SDS011;15583;54.078;12.106;2023-02-01T15:00:30;4.35;;;0.80;;
28323;SDS011;15583;54.078;12.106;2023-02-01T15:05:41;4.18;;;1.20;;
28323;SDS011;15583;54.078;12.106;2023-02-01T15:08:16;5.95;;;1.20;;
28323;SDS011;15583;54.078;12.106;2023-02-01T15:10:44;8.82;;;1.30;;
28323;SDS011;15583;54.078;12.106;2023-02-01T15:13:17;7.72;;;1.38;;
28323;SDS011;15583;54.078;12.106;2023-02-01T15:15:44;6.57;;;1.08;;
28323;SDS011;15583;54.078;12.106;2023-02-01T15:18:16;4.55;;;1.20;;
28323;SDS011;15583;54.078;12.106;2023-02-01T15:20:43;7.55;;;1.42;;
28323;SDS011;15583;54.078;12.106;2023-02-01T15:23:21;7.68;;;1.60;;
28323;SDS011;15583;54.078;12.106;2023-02-01T15:25:48;9.93;;;1.63;;
28323;SDS011;15583;54.078;12.106;2023-02-01T15:28:15;5.25;;;1.35;;
28323;SDS011;15583;54.078;12.106;2023-02-01T15:30:51;7.00;;;1.55;;
28323;SDS011;15583;54.078;12.106;2023-02-01T15:33:17;12.55;;;2.15;;
28323;SDS011;15583;54.078;12.106;2023-02-01T15:38:24;10.07;;;1.63;;
28323;SDS011;15583;54.078;12.106;2023-02-01T15:41:06;12.73;;;1.50;;
28323;SDS011;15583;54.078;12.106;2023-02-01T15:43:36;8.68;;;1.45;;
28323;SDS011;15583;54.078;12.106;2023-02-01T15:46:06;10.75;;;1.40;;
28323;SDS011;15583;54.078;12.106;2023-02-01T15:48:35;7.13;;;1.42;;
28323;SDS011;15583;54.078;12.106;2023-02-01T15:51:02;8.23;;;2.53;;
28323;SDS011;15583;54.078;12.106;2023-02-01T15:53:29;7.80;;;1.80;;
28323;SDS011;15583;54.078;12.106;2023-02-01T15:55:58;5.88;;;1.80;;
28323;SDS011;15583;54.078;12.106;2023-02-01T15:58:24;7.38;;;2.17;;
28323;SDS011;15583;54.078;12.106;2023-02-01T16:00:53;7.50;;;1.95;;
28323;SDS011;15583;54.078;12.106;2023-02-01T16:03:27;7.72;;;1.73;;
28323;SDS011;15583;54.078;12.106;2023-02-01T16:05:55;7.45;;;1.98;;
28323;SDS011;15583;54.078;12.106;2023-02-01T16:08:22;5.60;;;1.58;;
28323;SDS011;15583;54.078;12.106;2023-02-01T16:10:51;4.55;;;1.40;;
28323;SDS011;15583;54.078;12.106;2023-02-01T16:13:18;6.13;;;2.13;;
28323;SDS011;15583;54.078;12.106;2023-02-01T16:15:45;5.55;;;1.63;;
28323;SDS011;15583;54.078;12.106;2023-02-01T16:18:11;7.18;;;1.80;;
28323;SDS011;15583;54.078;12.106;2023-02-01T16:20:38;6.00;;;1.35;;
28323;SDS011;15583;54.078;12.106;2023-02-01T16:23:04;6.68;;;1.50;;
28323;SDS011;15583;54.078;12.106;2023-02-01T16:25:30;9.05;;;1.58;;
28323;SDS011;15583;54.078;12.106;2023-02-01T16:27:56;6.65;;;1.70;;
28323;SDS011;15583;54.078;12.106;2023-02-01T16:30:22;5.85;;;1.25;;
28323;SDS011;15583;54.078;12.106;2023-02-01T16:32:52;5.03;;;1.33;;
28323;SDS011;15583;54.078;12.106;2023-02-01T16:37:48;7.95;;;1.50;;
28323;SDS011;15583;54.078;12.106;2023-02-01T16:40:15;9.27;;;1.85;;
28323;SDS011;15583;54.078;12.106;2023-02-01T16:42:41;6.03;;;1.45;;
28323;SDS011;15583;54.078;12.106;2023-02-01T16:45:07;9.45;;;1.63;;
28323;SDS011;15583;54.078;12.106;2023-02-01T16:47:33;4.65;;;1.77;;
28323;SDS011;15583;54.078;12.106;2023-02-01T16:50:01;5.38;;;2.20;;
28323;SDS011;15583;54.078;12.106;2023-02-01T16:52:27;7.28;;;2.05;;
28323;SDS011;15583;54.078;12.106;2023-02-01T16:54:53;6.72;;;1.80;;
28323;SDS011;15583;54.078;12.106;2023-02-01T16:57:19;9.63;;;2.22;;
28323;SDS011;15583;54.078;12.106;2023-02-01T16:59:50;15.60;;;3.00;;
28323;SDS011;15583;54.078;12.106;2023-02-01T17:02:17;9.48;;;1.98;;
28323;SDS011;15583;54.078;12.106;2023-02-01T17:04:48;16.23;;;3.13;;
28323;SDS011;15583;54.078;12.106;2023-02-01T17:07:15;8.30;;;2.17;;
28323;SDS011;15583;54.078;12.106;2023-02-01T17:09:42;13.27;;;2.90;;
28323;SDS011;15583;54.078;12.106;2023-02-01T17:12:26;13.98;;;2.47;;
28323;SDS011;15583;54.078;12.106;2023-02-01T17:14:54;12.73;;;2.55;;
28323;SDS011;15583;54.078;12.106;2023-02-01T17:17:20;10.35;;;2.22;;
28323;SDS011;15583;54.078;12.106;2023-02-01T17:19:47;11.55;;;2.22;;
28323;SDS011;15583;54.078;12.106;2023-02-01T17:22:21;14.55;;;2.45;;
28323;SDS011;15583;54.078;12.106;2023-02-01T17:24:47;17.23;;;3.55;;